aviador You're here:

KSXS Decoded Metar

FT RUCKER/SHELL in AL, USA
Report Time2017-12-17 07:58:00
UTC Time2017-12-17 08:12:50
Flight Rules vfr VFR
Wind130° at 03 kt
W.Rank130° ranks 18
Current wind is below 130° avg. (5.4)
Visibility9999 m
Phenomena:N/A
Clouds:N/A
Expected CloudBase > 2,800 ft AGL from Temp-Dew spread
CeilingNone
Temp07°C (ISA -7)
Dew Point00°C (61% RH)
AAT3.9°C
QNH1023 hPa
Density Alt-719 ft
Elevation400 ft
Report Wrong Elevation
Raw Report
KSXS 170758Z AUTO 13003KT 10SM M 07/00 A3020 RMK AO2 SLP229
T00680003 $=

Extra information for KSXS:More info

Metar Taf Metar & Taf Last 4 Metars F.Rules Stats Wind Profile Meteogram Temp Stats Airport Information Weather charts Add Link Nearby VenuesMetar ALERT Operation Metar Decoded Social comments

AIRNAV info for KSXS